createdAt,value
2019-01-30T00:03:22.959Z,15.13
2019-01-30T00:06:02.803Z,15.90
2019-01-30T00:08:41.990Z,15.70
2019-01-30T00:11:21.849Z,12.70
2019-01-30T00:14:01.061Z,14.83
2019-01-30T00:20:05.705Z,11.63
2019-01-30T00:22:44.736Z,14.03
2019-01-30T00:25:24.145Z,14.97
2019-01-30T00:28:04.024Z,12.43
2019-01-30T00:30:43.099Z,13.70
2019-01-30T00:33:22.235Z,13.90
2019-01-30T00:36:02.318Z,16.23
2019-01-30T00:38:41.455Z,14.63
2019-01-30T00:41:20.677Z,14.30
2019-01-30T00:44:00.680Z,16.10
2019-01-30T00:46:40.621Z,14.80
2019-01-30T00:49:20.670Z,13.03
2019-01-30T00:52:00.755Z,12.90
2019-01-30T00:54:40.744Z,11.83
2019-01-30T00:57:19.883Z,12.83
2019-01-30T00:59:59.891Z,11.00
2019-01-30T01:02:39.114Z,17.80
2019-01-30T01:05:18.219Z,12.27
2019-01-30T01:07:57.317Z,13.10
2019-01-30T01:10:36.456Z,13.07
2019-01-30T01:13:15.550Z,15.30
2019-01-30T01:15:54.783Z,14.87
2019-01-30T01:18:33.992Z,15.73
2019-01-30T01:21:13.367Z,24.17
2019-01-30T01:23:53.344Z,18.33
2019-01-30T01:26:32.399Z,22.70
2019-01-30T01:29:11.551Z,21.40
2019-01-30T01:31:50.743Z,19.70
2019-01-30T01:34:29.953Z,21.50
2019-01-30T01:37:09.235Z,20.90
2019-01-30T01:39:50.924Z,17.87
2019-01-30T01:42:30.576Z,21.23
2019-01-30T01:45:10.528Z,21.83
2019-01-30T01:47:53.489Z,18.80
2019-01-30T01:50:32.623Z,22.67
2019-01-30T01:53:11.917Z,21.73
2019-01-30T01:59:14.784Z,19.97
2019-01-30T02:01:54.331Z,17.80
2019-01-30T02:04:33.567Z,19.33
2019-01-30T02:07:13.436Z,19.10
2019-01-30T02:09:53.557Z,21.43
2019-01-30T02:12:32.880Z,20.60
2019-01-30T02:15:11.964Z,15.07
2019-01-30T02:17:51.117Z,17.03
2019-01-30T02:20:30.228Z,17.67
2019-01-30T02:23:10.227Z,18.33
2019-01-30T02:25:50.365Z,15.90
2019-01-30T02:28:30.394Z,17.97
2019-01-30T02:31:09.502Z,16.40
2019-01-30T02:33:48.597Z,17.10
2019-01-30T02:36:28.593Z,17.90
2019-01-30T02:39:07.764Z,16.60
2019-01-30T02:41:46.828Z,14.30
2019-01-30T02:44:26.363Z,16.13
2019-01-30T02:47:05.553Z,14.23
2019-01-30T02:49:45.495Z,14.43
2019-01-30T02:52:24.893Z,16.23
2019-01-30T02:55:05.127Z,19.73
2019-01-30T02:57:44.221Z,16.43
2019-01-30T03:00:23.303Z,14.57
2019-01-30T03:03:02.573Z,13.70
2019-01-30T03:05:42.464Z,13.93
2019-01-30T03:08:21.548Z,17.13
2019-01-30T03:11:01.610Z,20.93
2019-01-30T03:13:41.652Z,13.10
2019-01-30T03:16:21.572Z,14.00
2019-01-30T03:19:00.817Z,15.13
2019-01-30T03:21:40.835Z,14.13
2019-01-30T03:24:20.893Z,12.80
2019-01-30T03:27:00.837Z,14.03
2019-01-30T03:29:39.980Z,12.23
2019-01-30T03:32:19.082Z,12.17
2019-01-30T03:34:59.177Z,20.63
2019-01-30T03:37:39.319Z,16.87
2019-01-30T03:40:19.221Z,15.13
2019-01-30T03:42:59.205Z,14.70
2019-01-30T03:45:39.254Z,16.80
2019-01-30T03:48:19.305Z,13.23
2019-01-30T03:50:59.373Z,15.40
2019-01-30T03:53:38.445Z,17.00
2019-01-30T03:56:17.681Z,14.70
2019-01-30T03:58:56.849Z,14.53
2019-01-30T04:01:36.111Z,19.13
2019-01-30T04:04:15.211Z,18.37
2019-01-30T04:06:55.198Z,18.00
2019-01-30T04:09:35.252Z,16.27
2019-01-30T04:12:14.495Z,16.27
2019-01-30T04:14:54.495Z,20.07
2019-01-30T04:17:34.440Z,20.00
2019-01-30T04:20:14.465Z,16.37
2019-01-30T04:22:54.367Z,19.07
2019-01-30T04:25:36.356Z,20.00
2019-01-30T04:28:15.544Z,16.10
2019-01-30T04:30:55.305Z,15.00
2019-01-30T04:33:35.339Z,14.60
2019-01-30T04:36:15.498Z,17.50
2019-01-30T04:38:55.437Z,13.40
2019-01-30T04:41:35.492Z,15.40
2019-01-30T04:44:14.712Z,14.60
2019-01-30T04:46:54.122Z,16.00
2019-01-30T04:49:34.065Z,15.93
2019-01-30T04:52:13.511Z,16.87
2019-01-30T04:54:53.413Z,15.80
2019-01-30T04:57:33.363Z,14.30
2019-01-30T05:00:13.396Z,21.60
2019-01-30T05:02:53.457Z,18.40
2019-01-30T05:05:33.633Z,17.03
2019-01-30T05:08:13.766Z,12.13
2019-01-30T05:10:53.746Z,17.00
2019-01-30T05:13:33.749Z,15.97
2019-01-30T05:16:13.735Z,18.37
2019-01-30T05:18:52.909Z,17.20
2019-01-30T05:21:32.881Z,18.80
2019-01-30T05:24:16.408Z,16.30
2019-01-30T05:26:55.834Z,17.73
2019-01-30T05:29:34.948Z,17.63
2019-01-30T05:32:14.229Z,16.43
2019-01-30T05:34:54.434Z,16.57
2019-01-30T05:37:33.493Z,21.60
2019-01-30T05:40:12.629Z,14.83
2019-01-30T05:42:51.766Z,16.43
2019-01-30T05:45:30.932Z,20.80
2019-01-30T05:51:34.732Z,16.60
2019-01-30T05:54:14.919Z,15.90
2019-01-30T05:56:55.027Z,14.53
2019-01-30T05:59:35.220Z,18.97
2019-01-30T06:02:15.847Z,18.00
2019-01-30T06:04:55.500Z,15.33
2019-01-30T06:07:34.615Z,17.83
2019-01-30T06:10:13.743Z,15.97
2019-01-30T06:15:36.043Z,23.20
2019-01-30T06:18:19.633Z,17.30
2019-01-30T06:20:59.274Z,21.17
2019-01-30T06:23:39.339Z,18.77
2019-01-30T06:26:18.501Z,18.20
2019-01-30T06:28:58.839Z,18.00
2019-01-30T06:31:37.992Z,17.70
2019-01-30T06:34:17.912Z,23.40
2019-01-30T06:36:57.935Z,17.50
2019-01-30T06:39:40.933Z,20.20
2019-01-30T06:45:03.205Z,15.50
2019-01-30T06:47:42.429Z,17.37
2019-01-30T06:50:22.472Z,22.67
2019-01-30T06:53:06.267Z,16.70
2019-01-30T06:55:50.307Z,20.60
2019-01-30T06:58:31.471Z,16.60
2019-01-30T07:01:11.608Z,22.10
2019-01-30T07:03:50.749Z,19.33
2019-01-30T07:06:29.839Z,21.20
2019-01-30T07:09:09.012Z,17.60
2019-01-30T07:11:48.173Z,16.57
2019-01-30T07:14:27.343Z,17.13
2019-01-30T07:17:07.329Z,14.90
2019-01-30T07:19:46.464Z,18.20
2019-01-30T07:22:25.710Z,21.27
2019-01-30T07:25:05.783Z,17.10
2019-01-30T07:28:04.672Z,14.90
2019-01-30T07:30:44.926Z,20.10
2019-01-30T07:33:24.484Z,19.27
2019-01-30T07:36:04.150Z,19.27
2019-01-30T07:38:43.420Z,16.47
2019-01-30T07:41:23.435Z,18.13
2019-01-30T07:44:03.420Z,17.60
2019-01-30T07:46:43.574Z,17.67
2019-01-30T07:49:23.668Z,16.97
2019-01-30T07:52:02.902Z,19.20
2019-01-30T07:54:42.911Z,15.17
2019-01-30T07:57:22.951Z,21.67
2019-01-30T08:00:02.177Z,20.50
2019-01-30T08:02:52.654Z,18.13
2019-01-30T08:05:23.519Z,19.07
2019-01-30T08:08:03.398Z,25.63
2019-01-30T08:10:43.485Z,20.27
2019-01-30T08:13:23.527Z,15.27
2019-01-30T08:16:03.480Z,17.37
2019-01-30T08:18:43.558Z,18.40
2019-01-30T08:21:22.706Z,14.73
2019-01-30T08:24:02.099Z,17.17
2019-01-30T08:26:42.665Z,15.87
2019-01-30T08:29:22.638Z,16.87
2019-01-30T08:32:02.590Z,14.77
2019-01-30T08:34:42.571Z,14.90
2019-01-30T08:37:21.689Z,15.00
2019-01-30T08:40:00.972Z,17.43
2019-01-30T08:42:40.155Z,15.17
2019-01-30T08:48:58.792Z,17.80
2019-01-30T08:51:38.680Z,13.97
2019-01-30T08:54:18.731Z,16.87
2019-01-30T08:56:58.589Z,15.00
2019-01-30T08:59:39.722Z,12.70
2019-01-30T09:09:08.994Z,15.00
2019-01-30T09:11:48.319Z,14.93
2019-01-30T09:14:28.244Z,16.10
2019-01-30T09:17:08.752Z,15.67
2019-01-30T09:19:48.311Z,14.87
2019-01-30T09:22:28.419Z,20.43
2019-01-30T09:25:08.292Z,15.17
2019-01-30T09:30:52.367Z,13.90
2019-01-30T09:33:33.198Z,15.33
2019-01-30T09:36:12.432Z,17.63
2019-01-30T09:38:51.663Z,15.30
2019-01-30T09:41:30.860Z,16.67
2019-01-30T09:44:10.986Z,16.73
2019-01-30T09:46:50.872Z,18.40
2019-01-30T09:49:30.142Z,19.53
2019-01-30T09:52:10.185Z,20.60
2019-01-30T09:54:49.369Z,21.43
2019-01-30T09:57:29.353Z,20.77
2019-01-30T10:00:08.629Z,23.40
2019-01-30T10:02:47.780Z,18.73
2019-01-30T10:05:27.742Z,20.20
2019-01-30T10:08:07.611Z,19.30
2019-01-30T10:10:47.688Z,18.47
2019-01-30T10:13:26.911Z,21.27
2019-01-30T10:16:06.137Z,22.83
2019-01-30T10:18:45.349Z,17.83
2019-01-30T10:21:24.751Z,19.63
2019-01-30T10:24:04.687Z,23.73
2019-01-30T10:26:44.691Z,18.40
2019-01-30T10:29:23.797Z,17.70
2019-01-30T10:32:03.827Z,16.90
2019-01-30T10:34:43.837Z,16.70
2019-01-30T10:37:22.867Z,17.13
2019-01-30T10:40:02.027Z,16.50
2019-01-30T10:42:42.095Z,14.67
2019-01-30T10:45:22.137Z,15.60
2019-01-30T10:48:02.289Z,17.63
2019-01-30T10:50:41.796Z,21.13
2019-01-30T10:56:47.419Z,17.10
2019-01-30T10:59:27.365Z,18.53
2019-01-30T11:05:46.811Z,15.93
2019-01-30T11:08:26.840Z,18.20
2019-01-30T11:11:07.859Z,22.20
2019-01-30T11:13:47.502Z,23.90
2019-01-30T11:16:27.090Z,16.43
2019-01-30T11:19:07.079Z,16.50
2019-01-30T11:21:46.388Z,14.73
2019-01-30T11:27:30.637Z,19.70
2019-01-30T11:30:09.688Z,19.50
2019-01-30T11:32:48.747Z,19.77
2019-01-30T11:35:28.843Z,16.00
2019-01-30T11:38:08.958Z,18.30
2019-01-30T11:40:48.969Z,16.60
2019-01-30T11:43:28.994Z,15.07
2019-01-30T11:46:09.018Z,16.60
2019-01-30T11:48:56.455Z,20.37
2019-01-30T11:51:34.079Z,17.60
2019-01-30T11:54:13.323Z,17.00
2019-01-30T11:56:52.549Z,19.60
2019-01-30T11:59:32.375Z,18.93
2019-01-30T12:02:11.577Z,19.30
2019-01-30T12:04:51.678Z,18.30
2019-01-30T12:07:30.891Z,17.70
2019-01-30T12:10:10.071Z,19.97
2019-01-30T12:12:53.500Z,17.17
2019-01-30T12:15:33.247Z,15.10
2019-01-30T12:18:12.540Z,14.03
2019-01-30T12:20:52.105Z,19.73
2019-01-30T12:23:31.667Z,20.77
2019-01-30T12:26:11.708Z,19.13
2019-01-30T12:28:51.703Z,14.70
2019-01-30T12:31:30.864Z,16.00
2019-01-30T12:34:10.061Z,14.83
2019-01-30T12:36:49.313Z,16.03
2019-01-30T12:39:29.237Z,19.13
2019-01-30T12:42:09.227Z,14.27
2019-01-30T12:44:48.485Z,17.13
2019-01-30T12:47:28.557Z,14.30
2019-01-30T12:50:07.832Z,13.53
2019-01-30T12:52:46.875Z,18.67
2019-01-30T12:55:26.087Z,15.43
2019-01-30T12:58:05.254Z,15.53
2019-01-30T13:00:45.346Z,13.80
2019-01-30T13:03:25.253Z,16.90
2019-01-30T13:06:04.374Z,16.43
2019-01-30T13:08:44.389Z,21.23
2019-01-30T13:11:24.413Z,21.50
2019-01-30T13:14:03.585Z,16.60
2019-01-30T13:16:43.664Z,14.90
2019-01-30T13:19:23.785Z,16.50
2019-01-30T13:22:02.884Z,19.57
2019-01-30T13:24:42.912Z,16.77
2019-01-30T13:27:23.040Z,16.33
2019-01-30T13:30:03.080Z,15.87
2019-01-30T13:32:43.241Z,16.57
2019-01-30T13:35:22.394Z,15.73
2019-01-30T13:38:02.514Z,15.07
2019-01-30T13:40:41.641Z,13.57
2019-01-30T13:43:20.820Z,13.63
2019-01-30T13:46:05.415Z,13.30
2019-01-30T13:52:19.823Z,17.57
2019-01-30T13:55:00.010Z,16.40
2019-01-30T13:57:43.584Z,15.40
2019-01-30T14:00:22.967Z,17.70
2019-01-30T14:06:11.192Z,20.40
2019-01-30T14:11:32.446Z,19.53
2019-01-30T14:14:12.423Z,19.63
2019-01-30T14:16:52.505Z,16.20
2019-01-30T14:19:31.817Z,19.93
2019-01-30T14:22:11.670Z,18.90
2019-01-30T14:24:51.668Z,18.50
2019-01-30T14:27:30.893Z,21.07
2019-01-30T14:30:10.232Z,19.80
2019-01-30T14:32:50.252Z,18.57
2019-01-30T14:35:29.319Z,18.93
2019-01-30T14:38:08.557Z,19.23
2019-01-30T14:40:48.594Z,18.20
2019-01-30T14:43:27.951Z,20.03
2019-01-30T14:46:07.782Z,24.80
2019-01-30T14:51:56.194Z,19.30
2019-01-30T14:54:36.125Z,16.67
2019-01-30T14:57:16.236Z,18.87
2019-01-30T14:59:56.410Z,21.77
2019-01-30T15:02:36.419Z,19.63
2019-01-30T15:05:22.479Z,19.98
2019-01-30T15:07:57.666Z,18.77
2019-01-30T15:10:36.878Z,18.43
2019-01-30T15:13:16.862Z,22.67
2019-01-30T15:15:56.877Z,20.77
2019-01-30T15:18:36.976Z,21.90
2019-01-30T15:21:16.969Z,21.17
2019-01-30T15:23:57.054Z,19.40
2019-01-30T15:26:36.439Z,18.50
2019-01-30T15:29:16.498Z,19.57
2019-01-30T15:31:55.803Z,25.77
2019-01-30T15:34:35.959Z,22.87
2019-01-30T15:37:15.818Z,24.17
2019-01-30T15:39:55.136Z,33.00
2019-01-30T15:42:34.453Z,32.27
2019-01-30T15:45:14.436Z,28.53
2019-01-30T15:47:54.384Z,26.13
2019-01-30T15:50:33.619Z,34.80
2019-01-30T15:53:12.733Z,29.73
2019-01-30T15:55:51.785Z,28.00
2019-01-30T15:58:30.970Z,28.33
2019-01-30T16:01:11.000Z,32.23
2019-01-30T16:03:50.282Z,28.10
2019-01-30T16:06:30.431Z,30.43
2019-01-30T16:09:09.540Z,26.23
2019-01-30T16:11:50.547Z,23.73
2019-01-30T16:14:29.792Z,21.07
2019-01-30T16:17:08.870Z,21.20
2019-01-30T16:19:49.408Z,21.00
2019-01-30T16:22:29.038Z,24.10
2019-01-30T16:25:09.599Z,24.20
2019-01-30T16:27:49.168Z,23.80
2019-01-30T16:30:29.216Z,28.63
2019-01-30T16:33:08.331Z,25.47
2019-01-30T16:35:55.809Z,21.80
2019-01-30T16:38:29.520Z,22.70
2019-01-30T16:41:08.771Z,22.90
2019-01-30T16:43:48.900Z,25.17
2019-01-30T16:46:28.960Z,25.23
2019-01-30T16:49:08.954Z,28.03
2019-01-30T16:51:48.085Z,25.63
2019-01-30T16:54:27.186Z,27.30
2019-01-30T16:57:06.441Z,28.30
2019-01-30T16:59:46.502Z,25.77
2019-01-30T17:05:51.817Z,24.60
2019-01-30T17:08:31.802Z,25.80
2019-01-30T17:11:10.942Z,34.93
2019-01-30T17:13:50.056Z,26.30
2019-01-30T17:16:30.061Z,26.10
2019-01-30T17:19:09.279Z,26.83
2019-01-30T17:21:48.535Z,31.47
2019-01-30T17:24:28.058Z,32.13
2019-01-30T17:30:27.440Z,30.70
2019-01-30T17:33:07.374Z,35.70
2019-01-30T17:35:47.427Z,34.53
2019-01-30T17:38:27.588Z,35.30
2019-01-30T17:41:07.564Z,31.60
2019-01-30T17:43:46.662Z,35.07
2019-01-30T17:46:28.011Z,39.87
2019-01-30T17:49:07.841Z,43.70
2019-01-30T17:51:47.818Z,37.47
2019-01-30T17:54:27.970Z,39.23
2019-01-30T17:57:07.965Z,38.70
2019-01-30T17:59:47.886Z,40.33
2019-01-30T18:02:27.207Z,35.97
2019-01-30T18:05:11.155Z,41.33
2019-01-30T18:07:50.301Z,38.90
2019-01-30T18:10:30.511Z,41.37
2019-01-30T18:13:10.577Z,42.87
2019-01-30T18:15:49.671Z,38.07
2019-01-30T18:18:29.813Z,43.20
2019-01-30T18:21:09.106Z,37.53
2019-01-30T18:23:48.930Z,46.37
2019-01-30T18:26:28.987Z,40.83
2019-01-30T18:29:09.350Z,42.63
2019-01-30T18:31:49.210Z,41.50
2019-01-30T18:34:28.310Z,40.10
2019-01-30T18:37:07.565Z,42.23
2019-01-30T18:39:49.594Z,40.83
2019-01-30T18:42:28.104Z,38.87
2019-01-30T18:45:08.247Z,45.07
2019-01-30T18:47:48.328Z,39.97
2019-01-30T18:50:28.439Z,43.00
2019-01-30T18:53:08.453Z,39.73
2019-01-30T18:55:48.388Z,45.43
2019-01-30T18:58:27.694Z,44.40
2019-01-30T19:01:07.026Z,58.77
2019-01-30T19:03:47.148Z,53.03
2019-01-30T19:06:27.023Z,53.33
2019-01-30T19:09:07.305Z,53.80
2019-01-30T19:11:47.438Z,52.77
2019-01-30T19:14:26.681Z,52.33
2019-01-30T19:17:05.953Z,52.73
2019-01-30T19:19:46.017Z,53.17
2019-01-30T19:22:26.409Z,50.67
2019-01-30T19:25:06.395Z,52.63
2019-01-30T19:27:46.600Z,48.60
2019-01-30T19:30:26.859Z,48.33
2019-01-30T19:33:06.161Z,56.23
2019-01-30T19:35:46.159Z,55.80
2019-01-30T19:38:26.379Z,53.77
2019-01-30T19:41:05.663Z,59.40
2019-01-30T19:43:45.874Z,58.27
2019-01-30T19:46:25.861Z,59.43
2019-01-30T19:49:09.442Z,56.87
2019-01-30T19:51:49.035Z,58.67
2019-01-30T19:54:28.318Z,62.03
2019-01-30T19:57:08.414Z,63.20
2019-01-30T19:59:48.711Z,60.97
2019-01-30T20:02:29.062Z,62.40
2019-01-30T20:05:08.999Z,64.50
2019-01-30T20:07:49.105Z,59.10
2019-01-30T20:10:29.184Z,63.50
2019-01-30T20:13:09.502Z,73.07
2019-01-30T20:15:49.591Z,59.03
2019-01-30T20:18:29.731Z,74.17
2019-01-30T20:21:09.753Z,60.40
2019-01-30T20:23:49.817Z,61.37
2019-01-30T20:26:29.988Z,61.57
2019-01-30T20:29:09.257Z,58.80
2019-01-30T20:31:49.388Z,59.70
2019-01-30T20:34:29.453Z,67.07
2019-01-30T20:37:08.481Z,65.00
2019-01-30T20:39:47.722Z,68.57
2019-01-30T20:42:27.023Z,63.97
2019-01-30T20:45:06.688Z,62.00
2019-01-30T20:47:46.790Z,65.17
2019-01-30T20:50:26.607Z,62.40
2019-01-30T20:53:06.543Z,62.70
2019-01-30T20:55:46.676Z,65.97
2019-01-30T20:58:26.600Z,66.37
2019-01-30T21:01:06.336Z,60.33
2019-01-30T21:03:46.378Z,63.93
2019-01-30T21:06:25.472Z,71.90
2019-01-30T21:09:05.444Z,69.80
2019-01-30T21:11:44.646Z,65.50
2019-01-30T21:14:23.926Z,62.00
2019-01-30T21:17:03.967Z,63.87
2019-01-30T21:19:43.052Z,64.97
2019-01-30T21:22:22.955Z,62.60
2019-01-30T21:25:02.769Z,65.77
2019-01-30T21:27:41.958Z,61.50
2019-01-30T21:30:21.936Z,58.40
2019-01-30T21:33:01.136Z,55.27
2019-01-30T21:35:40.220Z,63.03
2019-01-30T21:38:20.185Z,55.33
2019-01-30T21:40:59.317Z,62.10
2019-01-30T21:43:38.568Z,56.33
2019-01-30T21:46:17.682Z,58.53
2019-01-30T21:48:56.839Z,59.83
2019-01-30T21:51:35.994Z,53.80
2019-01-30T21:54:15.930Z,65.17
2019-01-30T21:56:55.107Z,56.40
2019-01-30T21:59:34.582Z,67.77
2019-01-30T22:02:14.567Z,66.80
2019-01-30T22:04:54.614Z,62.30
2019-01-30T22:07:34.425Z,54.63
2019-01-30T22:10:13.501Z,59.93
2019-01-30T22:12:53.656Z,59.30
2019-01-30T22:15:33.083Z,57.80
2019-01-30T22:18:13.099Z,61.33
2019-01-30T22:20:52.309Z,61.93
2019-01-30T22:23:31.659Z,61.37
2019-01-30T22:26:11.579Z,65.90
2019-01-30T22:28:50.803Z,63.03
2019-01-30T22:31:30.022Z,60.57
2019-01-30T22:34:09.108Z,60.50
2019-01-30T22:36:49.130Z,58.70
2019-01-30T22:39:28.443Z,71.10
2019-01-30T22:42:08.234Z,58.07
2019-01-30T22:44:48.272Z,60.30
2019-01-30T22:47:27.344Z,65.63
2019-01-30T22:50:07.394Z,66.97
2019-01-30T22:52:46.612Z,65.13
2019-01-30T22:55:26.718Z,57.30
2019-01-30T22:58:06.739Z,65.13
2019-01-30T23:00:53.683Z,62.53
2019-01-30T23:03:32.922Z,67.80
2019-01-30T23:06:12.907Z,54.40
2019-01-30T23:08:52.020Z,54.07
2019-01-30T23:11:32.020Z,56.10
2019-01-30T23:14:11.964Z,47.27
2019-01-30T23:16:51.888Z,42.23
2019-01-30T23:19:31.054Z,47.73
2019-01-30T23:22:10.345Z,43.23
2019-01-30T23:24:49.390Z,41.70
2019-01-30T23:27:28.548Z,35.90
2019-01-30T23:30:07.741Z,38.07
2019-01-30T23:32:47.730Z,36.43
2019-01-30T23:35:27.948Z,35.00
2019-01-30T23:38:08.152Z,35.03
2019-01-30T23:40:47.241Z,30.87
2019-01-30T23:43:27.296Z,31.03
2019-01-30T23:46:07.374Z,34.33
2019-01-30T23:48:47.391Z,31.97
2019-01-30T23:51:27.434Z,34.37
2019-01-30T23:54:07.457Z,30.93
2019-01-30T23:56:47.567Z,30.30
2019-01-30T23:59:26.687Z,29.53
